createdAt,value
2022-12-09T00:01:11.793Z,96699.31
2022-12-09T00:03:39.456Z,96700.59
2022-12-09T00:06:09.160Z,96704.31
2022-12-09T00:08:36.746Z,96689.09
2022-12-09T00:11:06.235Z,96702.38
2022-12-09T00:13:33.602Z,96702.91
2022-12-09T00:16:00.844Z,96702.91
2022-12-09T00:18:28.436Z,96694.09
2022-12-09T00:20:55.530Z,96690.91
2022-12-09T00:23:22.848Z,96687.44
2022-12-09T00:25:50.152Z,96687.44
2022-12-09T00:28:18.598Z,96682.66
2022-12-09T00:30:45.892Z,96685.34
2022-12-09T00:33:13.353Z,96685.63
2022-12-09T00:35:40.499Z,96690.69
2022-12-09T00:38:07.624Z,96684.81
2022-12-09T00:40:34.735Z,96675.69
2022-12-09T00:43:01.867Z,96671.69
2022-12-09T00:45:30.333Z,96678.72
2022-12-09T00:47:57.508Z,96670.34
2022-12-09T00:50:24.686Z,96669.56
2022-12-09T00:52:51.818Z,96682.69
2022-12-09T00:55:18.994Z,96683.25
2022-12-09T00:57:46.659Z,96677.34
2022-12-09T01:00:14.272Z,96659.94
2022-12-09T01:02:42.876Z,96677.56
2022-12-09T01:05:10.308Z,96678.88
2022-12-09T01:07:37.604Z,96686.94
2022-12-09T01:10:06.395Z,96681.84
2022-12-09T01:12:34.511Z,96682.41
2022-12-09T01:15:01.710Z,96683.22
2022-12-09T01:17:29.015Z,96678.91
2022-12-09T01:19:57.503Z,96682.97
2022-12-09T01:22:24.938Z,96682.69
2022-12-09T01:24:52.471Z,96679.22
2022-12-09T01:27:19.780Z,96675.72
2022-12-09T01:29:47.030Z,96681.09
2022-12-09T01:32:14.487Z,96671.25
2022-12-09T01:34:42.441Z,96670.97
2022-12-09T01:37:11.255Z,96667.78
2022-12-09T01:39:39.050Z,96674.44
2022-12-09T01:42:06.390Z,96665.84
2022-12-09T01:44:34.517Z,96662.94
2022-12-09T01:47:02.628Z,96665.09
2022-12-09T01:49:34.374Z,96657.28
2022-12-09T01:52:07.531Z,96662.66
2022-12-09T01:54:37.893Z,96647.38
2022-12-09T01:57:05.407Z,96647.59
2022-12-09T01:59:32.859Z,96650.00
2022-12-09T02:02:02.347Z,96635.84
2022-12-09T02:04:33.660Z,96640.94
2022-12-09T02:07:03.979Z,96636.88
2022-12-09T02:09:31.723Z,96609.38
2022-12-09T02:12:11.993Z,96630.22
2022-12-09T02:14:43.084Z,96631.28
2022-12-09T02:17:30.053Z,96604.22
2022-12-09T02:20:06.742Z,96606.13
2022-12-09T02:22:38.996Z,96607.22
2022-12-09T02:25:14.385Z,96602.91
2022-12-09T02:27:50.341Z,96592.25
2022-12-09T02:30:20.538Z,96599.78
2022-12-09T02:33:03.021Z,96607.81
2022-12-09T02:35:39.452Z,96604.28
2022-12-09T02:38:11.111Z,96594.91
2022-12-09T02:40:45.932Z,96599.16
2022-12-09T02:43:15.396Z,96585.81
2022-12-09T02:45:44.126Z,96613.28
2022-12-09T02:48:13.842Z,96592.44
2022-12-09T02:50:44.566Z,96591.84
2022-12-09T02:53:14.732Z,96590.25
2022-12-09T02:55:44.171Z,96604.53
2022-12-09T02:58:11.385Z,96593.00
2022-12-09T03:00:39.584Z,96581.47
2022-12-09T03:03:13.531Z,96589.78
2022-12-09T03:05:49.751Z,96582.34
2022-12-09T03:08:29.752Z,96575.88
2022-12-09T03:11:01.250Z,96573.47
2022-12-09T03:13:46.227Z,96572.41
2022-12-09T03:16:22.108Z,96556.88
2022-12-09T03:18:55.511Z,96563.63
2022-12-09T03:21:28.078Z,96570.06
2022-12-09T03:23:56.904Z,96571.09
2022-12-09T03:26:27.608Z,96563.66
2022-12-09T03:28:55.932Z,96553.13
2022-12-09T03:31:27.426Z,96549.16
2022-12-09T03:33:58.727Z,96547.53
2022-12-09T03:36:33.689Z,96544.22
2022-12-09T03:39:03.001Z,96557.09
2022-12-09T03:41:32.888Z,96560.94
2022-12-09T03:44:07.300Z,96577.66
2022-12-09T03:46:35.334Z,96566.47
2022-12-09T03:49:02.693Z,96567.88
2022-12-09T03:51:36.364Z,96564.97
2022-12-09T03:54:08.724Z,96551.97
2022-12-09T03:56:41.225Z,96538.69
2022-12-09T03:59:11.905Z,96539.28
2022-12-09T04:01:40.277Z,96554.38
2022-12-09T04:04:08.247Z,96550.56
2022-12-09T04:06:37.069Z,96548.00
2022-12-09T04:09:05.243Z,96540.78
2022-12-09T04:11:33.492Z,96534.09
2022-12-09T04:14:01.070Z,96534.06
2022-12-09T04:16:28.673Z,96527.69
2022-12-09T04:18:55.944Z,96534.63
2022-12-09T04:21:23.356Z,96540.16
2022-12-09T04:23:52.268Z,96533.47
2022-12-09T04:26:21.227Z,96532.88
2022-12-09T04:28:48.712Z,96523.53
2022-12-09T04:31:18.175Z,96522.72
2022-12-09T04:33:46.486Z,96522.72
2022-12-09T04:36:16.625Z,96520.91
2022-12-09T04:38:44.233Z,96525.81
2022-12-09T04:41:13.375Z,96532.25
2022-12-09T04:43:41.042Z,96532.88
2022-12-09T04:46:11.469Z,96535.13
2022-12-09T04:48:39.292Z,96526.44
2022-12-09T04:51:08.368Z,96529.41
2022-12-09T04:53:36.320Z,96519.78
2022-12-09T04:56:06.226Z,96509.97
2022-12-09T04:58:35.033Z,96507.81
2022-12-09T05:01:06.159Z,96511.13
2022-12-09T05:03:33.944Z,96506.59
2022-12-09T05:06:03.386Z,96507.75
2022-12-09T05:08:31.834Z,96507.16
2022-12-09T05:11:00.163Z,96505.56
2022-12-09T05:13:28.053Z,96500.22
2022-12-09T05:15:59.825Z,96500.50
2022-12-09T05:18:27.442Z,96494.25
2022-12-09T05:20:55.045Z,96488.81
2022-12-09T05:23:22.647Z,96484.34
2022-12-09T05:25:50.177Z,96463.28
2022-12-09T05:28:17.770Z,96479.03
2022-12-09T05:30:45.222Z,96469.88
2022-12-09T05:33:14.030Z,96465.91
2022-12-09T05:35:52.406Z,96460.25
2022-12-09T05:38:21.948Z,96464.72
2022-12-09T05:40:49.823Z,96456.84
2022-12-09T05:43:17.809Z,96465.16
2022-12-09T05:45:45.553Z,96450.38
2022-12-09T05:48:14.245Z,96438.78
2022-12-09T05:50:41.709Z,96443.41
2022-12-09T05:53:08.998Z,96446.75
2022-12-09T05:55:40.277Z,96446.22
2022-12-09T05:58:08.024Z,96449.19
2022-12-09T06:00:35.260Z,96444.91
2022-12-09T06:03:02.640Z,96434.69
2022-12-09T06:05:31.717Z,96423.75
2022-12-09T06:08:05.110Z,96433.59
2022-12-09T06:10:34.163Z,96429.00
2022-12-09T06:13:01.848Z,96418.50
2022-12-09T06:15:33.218Z,96412.63
2022-12-09T06:18:01.344Z,96411.00
2022-12-09T06:20:28.730Z,96397.13
2022-12-09T06:22:57.598Z,96415.09
2022-12-09T06:25:24.905Z,96423.69
2022-12-09T06:27:53.226Z,96426.63
2022-12-09T06:30:20.953Z,96435.28
2022-12-09T06:32:48.354Z,96431.00
2022-12-09T06:35:16.666Z,96428.81
2022-12-09T06:37:44.800Z,96419.47
2022-12-09T06:40:13.886Z,96408.53
2022-12-09T06:42:41.338Z,96410.69
2022-12-09T06:45:09.660Z,96422.03
2022-12-09T06:47:37.243Z,96421.78
2022-12-09T06:50:07.336Z,96424.16
2022-12-09T06:52:35.299Z,96426.84
2022-12-09T06:55:03.023Z,96421.78
2022-12-09T06:57:31.746Z,96427.72
2022-12-09T06:59:59.346Z,96416.66
2022-12-09T07:02:29.253Z,96416.06
2022-12-09T07:04:59.926Z,96420.03
2022-12-09T07:07:27.611Z,96425.13
2022-12-09T07:09:54.948Z,96423.81
2022-12-09T07:12:22.435Z,96422.22
2022-12-09T07:14:51.027Z,96429.97
2022-12-09T07:17:20.152Z,96426.78
2022-12-09T07:19:48.489Z,96407.88
2022-12-09T07:22:16.623Z,96405.41
2022-12-09T07:24:44.577Z,96412.38
2022-12-09T07:27:19.406Z,96409.69
2022-12-09T07:29:47.446Z,96402.72
2022-12-09T07:32:17.039Z,96407.78
2022-12-09T07:34:44.356Z,96397.44
2022-12-09T07:37:12.092Z,96394.25
2022-12-09T07:39:39.463Z,96395.91
2022-12-09T07:42:06.659Z,96406.34
2022-12-09T07:44:33.824Z,96403.66
2022-12-09T07:47:01.254Z,96407.94
2022-12-09T07:49:30.047Z,96407.72
2022-12-09T07:51:57.472Z,96410.06
2022-12-09T07:54:24.714Z,96409.19
2022-12-09T07:56:51.976Z,96401.13
2022-12-09T07:59:19.227Z,96389.84
2022-12-09T08:01:47.280Z,96383.94
2022-12-09T08:04:14.708Z,96382.94
2022-12-09T08:06:44.007Z,96386.13
2022-12-09T08:09:13.887Z,96378.38
2022-12-09T08:11:41.683Z,96376.50
2022-12-09T08:14:12.899Z,96374.09
2022-12-09T08:16:41.884Z,96370.63
2022-12-09T08:19:10.126Z,96377.06
2022-12-09T08:21:38.292Z,96380.34
2022-12-09T08:24:07.775Z,96377.16
2022-12-09T08:26:35.894Z,96377.16
2022-12-09T08:29:08.288Z,96369.16
2022-12-09T08:31:40.523Z,96367.38
2022-12-09T08:34:08.967Z,96368.88
2022-12-09T08:36:36.931Z,96364.03
2022-12-09T08:39:05.273Z,96362.75
2022-12-09T08:41:36.825Z,96354.09
2022-12-09T08:44:07.212Z,96347.66
2022-12-09T08:46:35.904Z,96359.03
2022-12-09T08:49:05.243Z,96351.75
2022-12-09T08:51:32.700Z,96350.69
2022-12-09T08:54:01.352Z,96347.00
2022-12-09T08:56:29.207Z,96332.66
2022-12-09T08:58:58.033Z,96333.38
2022-12-09T09:01:27.739Z,96346.28
2022-12-09T09:03:55.539Z,96340.91
2022-12-09T09:06:23.066Z,96340.91
2022-12-09T09:08:50.473Z,96335.28
2022-12-09T09:11:19.793Z,96340.13
2022-12-09T09:13:48.988Z,96337.72
2022-12-09T09:16:19.532Z,96348.44
2022-12-09T09:18:47.676Z,96347.72
2022-12-09T09:21:18.352Z,96340.25
2022-12-09T09:23:46.147Z,96333.81
2022-12-09T09:26:14.644Z,96333.25
2022-12-09T09:28:42.694Z,96333.75
2022-12-09T09:31:13.504Z,96326.41
2022-12-09T09:33:42.692Z,96310.47
2022-12-09T09:36:14.178Z,96319.75
2022-12-09T09:38:41.806Z,96327.44
2022-12-09T09:41:20.227Z,96329.75
2022-12-09T09:43:47.939Z,96331.13
2022-12-09T09:46:20.851Z,96330.63
2022-12-09T09:48:51.202Z,96322.09
2022-12-09T09:51:21.173Z,96298.91
2022-12-09T09:53:51.341Z,96292.88
2022-12-09T09:56:26.883Z,96287.88
2022-12-09T09:59:10.602Z,96288.69
2022-12-09T10:01:38.682Z,96295.13
2022-12-09T10:04:14.719Z,96277.81
2022-12-09T10:06:54.269Z,96273.22
2022-12-09T10:09:24.840Z,96288.38
2022-12-09T10:11:58.514Z,96289.19
2022-12-09T10:14:42.908Z,96297.06
2022-12-09T10:17:21.415Z,96307.94
2022-12-09T10:19:52.764Z,96303.88
2022-12-09T10:22:23.110Z,96278.59
2022-12-09T10:24:53.489Z,96294.44
2022-12-09T10:27:29.788Z,96306.28
2022-12-09T10:29:59.492Z,96296.34
2022-12-09T10:32:34.695Z,96290.75
2022-12-09T10:35:14.128Z,96300.31
2022-12-09T10:37:41.659Z,96289.09
2022-12-09T10:40:20.291Z,96287.50
2022-12-09T10:42:49.846Z,96283.00
2022-12-09T10:45:17.171Z,96279.03
2022-12-09T10:47:50.648Z,96271.66
2022-12-09T10:50:29.356Z,96276.63
2022-12-09T10:52:59.264Z,96276.06
2022-12-09T10:55:33.659Z,96261.16
2022-12-09T10:58:15.751Z,96260.06
2022-12-09T11:00:44.134Z,96265.13
2022-12-09T11:03:25.564Z,96253.09
2022-12-09T11:05:59.983Z,96238.28
2022-12-09T11:08:27.590Z,96244.91
2022-12-09T11:10:56.422Z,96253.69
2022-12-09T11:13:37.831Z,96248.53
2022-12-09T11:16:06.168Z,96240.00
2022-12-09T11:18:41.975Z,96233.25
2022-12-09T11:21:29.934Z,96237.75
2022-12-09T11:24:03.020Z,96233.88
2022-12-09T11:26:36.774Z,96218.16
2022-12-09T11:29:13.427Z,96223.22
2022-12-09T11:31:41.980Z,96218.47
2022-12-09T11:34:17.186Z,96214.69
2022-12-09T11:36:49.963Z,96206.44
2022-12-09T11:39:24.582Z,96209.41
2022-12-09T11:41:55.767Z,96202.47
2022-12-09T11:44:26.469Z,96199.28
2022-12-09T11:47:01.840Z,96206.59
2022-12-09T11:49:32.486Z,96202.03
2022-12-09T11:52:06.921Z,96193.72
2022-12-09T11:54:44.172Z,96190.25
2022-12-09T11:57:21.481Z,96186.25
2022-12-09T11:59:53.673Z,96185.47
2022-12-09T12:02:30.101Z,96178.41
2022-12-09T12:05:01.955Z,96169.88
2022-12-09T12:07:38.302Z,96181.59
2022-12-09T12:10:16.027Z,96171.59
2022-12-09T12:12:52.925Z,96174.88
2022-12-09T12:15:24.699Z,96168.91
2022-12-09T12:17:55.137Z,96175.25
2022-12-09T12:20:33.057Z,96174.75
2022-12-09T12:23:19.225Z,96171.28
2022-12-09T12:25:55.362Z,96166.50
2022-12-09T12:28:42.482Z,96169.19
2022-12-09T12:31:23.218Z,96171.38
2022-12-09T12:34:24.036Z,96176.22
2022-12-09T12:37:01.477Z,96167.19
2022-12-09T12:39:42.062Z,96159.97
2022-12-09T12:42:24.571Z,96161.03
2022-12-09T12:45:00.929Z,96156.75
2022-12-09T12:47:34.145Z,96152.00
2022-12-09T12:50:23.323Z,96143.25
2022-12-09T12:53:00.076Z,96147.00
2022-12-09T12:55:47.535Z,96142.34
2022-12-09T12:58:24.912Z,96131.56
2022-12-09T13:01:14.103Z,96132.78
2022-12-09T13:03:53.201Z,96125.22
2022-12-09T13:06:23.983Z,96129.50
2022-12-09T13:09:01.368Z,96123.63
2022-12-09T13:11:37.544Z,96125.81
2022-12-09T13:14:11.532Z,96127.13
2022-12-09T13:16:41.339Z,96124.03
2022-12-09T13:19:16.373Z,96129.59
2022-12-09T13:21:44.778Z,96131.78
2022-12-09T13:24:24.871Z,96133.34
2022-12-09T13:26:59.598Z,96136.91
2022-12-09T13:29:37.195Z,96131.75
2022-12-09T13:32:23.115Z,96138.91
2022-12-09T13:34:51.712Z,96136.50
2022-12-09T13:37:59.471Z,96132.81
2022-12-09T13:40:31.123Z,96134.09
2022-12-09T13:43:11.616Z,96130.75
2022-12-09T13:45:49.716Z,96122.78
2022-12-09T13:48:42.330Z,96129.78
2022-12-09T13:51:09.697Z,96122.72
2022-12-09T13:53:45.771Z,96130.78
2022-12-09T13:56:26.458Z,96128.09
2022-12-09T13:59:12.761Z,96114.97
2022-12-09T14:01:44.963Z,96125.00
2022-12-09T14:04:15.905Z,96122.13
2022-12-09T14:06:55.958Z,96123.72
2022-12-09T14:09:33.150Z,96116.56
2022-12-09T14:12:01.154Z,96113.38
2022-12-09T14:14:55.726Z,96121.41
2022-12-09T14:17:58.458Z,96123.03
2022-12-09T14:20:28.101Z,96130.06
2022-12-09T14:23:17.728Z,96130.63
2022-12-09T14:26:02.924Z,96133.59
2022-12-09T14:28:54.691Z,96134.28
2022-12-09T14:31:48.636Z,96130.81
2022-12-09T14:34:31.333Z,96123.56
2022-12-09T14:37:21.019Z,96119.31
2022-12-09T14:39:54.582Z,96116.72
2022-12-09T14:42:32.996Z,96117.44
2022-12-09T14:45:12.922Z,96072.72
2022-12-09T14:47:44.035Z,96139.47
2022-12-09T14:50:14.893Z,96145.84
2022-12-09T14:52:50.949Z,96141.78
2022-12-09T14:55:19.424Z,96153.22
2022-12-09T14:57:48.740Z,96113.47
2022-12-09T15:00:31.966Z,96150.41
2022-12-09T15:05:54.563Z,96146.44
2022-12-09T15:08:28.550Z,96140.06
2022-12-09T15:10:55.663Z,96146.81
2022-12-09T15:13:25.497Z,96149.28
2022-12-09T15:15:53.388Z,96150.97
2022-12-09T15:18:23.341Z,96147.19
2022-12-09T15:20:53.551Z,96149.94
2022-12-09T15:23:22.779Z,96146.19
2022-12-09T15:25:51.714Z,96149.94
2022-12-09T15:28:26.095Z,96157.97
2022-12-09T15:30:57.714Z,96145.75
2022-12-09T15:33:26.094Z,96150.47
2022-12-09T15:35:57.532Z,96146.91
2022-12-09T15:38:27.070Z,96154.16
2022-12-09T15:40:57.526Z,96154.94
2022-12-09T15:43:24.875Z,96145.72
2022-12-09T15:45:52.756Z,96150.88
2022-12-09T15:48:27.242Z,96148.69
2022-12-09T15:50:57.968Z,96149.69
2022-12-09T15:53:30.360Z,96145.22
2022-12-09T15:56:02.144Z,96146.31
2022-12-09T15:58:33.651Z,96159.28
2022-12-09T16:01:02.246Z,96156.56
2022-12-09T16:03:33.388Z,96158.69
2022-12-09T16:06:03.596Z,96158.66
2022-12-09T16:08:33.851Z,96159.91
2022-12-09T16:11:01.208Z,96145.81
2022-12-09T16:13:28.393Z,96157.00
2022-12-09T16:15:57.832Z,96159.59
2022-12-09T16:18:27.103Z,96147.06
2022-12-09T16:21:17.832Z,96128.13
2022-12-09T16:23:47.618Z,96157.06
2022-12-09T16:26:20.436Z,96166.44
2022-12-09T16:28:55.211Z,96171.47
2022-12-09T16:31:22.625Z,96170.66
2022-12-09T16:33:50.026Z,96175.91
2022-12-09T16:36:21.609Z,96168.78
2022-12-09T16:39:42.049Z,96176.22
2022-12-09T16:42:21.864Z,96179.13
2022-12-09T16:44:49.144Z,96187.75
2022-12-09T16:47:18.328Z,96166.72
2022-12-09T16:52:16.881Z,96180.69
2022-12-09T16:54:46.089Z,96178.44
2022-12-09T16:57:14.874Z,96177.91
2022-12-09T16:59:42.652Z,96178.31
2022-12-09T17:02:21.088Z,96174.75
2022-12-09T17:04:49.020Z,96170.97
2022-12-09T17:07:17.563Z,96172.16
2022-12-09T17:09:44.832Z,96185.22
2022-12-09T17:12:12.109Z,96188.91
2022-12-09T17:14:39.245Z,96183.72
2022-12-09T17:17:06.460Z,96185.13
2022-12-09T17:19:33.609Z,96186.31
2022-12-09T17:22:00.737Z,96190.69
2022-12-09T17:24:29.259Z,96191.75
2022-12-09T17:26:56.383Z,96196.53
2022-12-09T17:29:23.504Z,96195.25
2022-12-09T17:31:51.750Z,96184.63
2022-12-09T17:34:19.516Z,96206.28
2022-12-09T17:36:46.809Z,96194.44
2022-12-09T17:39:14.132Z,96213.34
2022-12-09T17:41:42.994Z,96208.28
2022-12-09T17:44:10.183Z,96212.22
2022-12-09T17:46:37.297Z,96209.06
2022-12-09T17:49:04.551Z,96212.84
2022-12-09T17:51:35.907Z,96212.25
2022-12-09T17:54:04.355Z,96218.59
2022-12-09T17:56:31.825Z,96217.31
2022-12-09T17:59:03.475Z,96224.56
2022-12-09T18:01:30.991Z,96229.53
2022-12-09T18:04:02.947Z,96226.06
2022-12-09T18:06:36.279Z,96221.47
2022-12-09T18:09:05.201Z,96206.47
2022-12-09T18:11:32.741Z,96228.47
2022-12-09T18:14:02.030Z,96214.72
2022-12-09T18:16:29.858Z,96234.91
2022-12-09T18:19:01.591Z,96224.94
2022-12-09T18:21:28.728Z,96234.41
2022-12-09T18:23:55.817Z,96232.63
2022-12-09T18:26:28.598Z,96238.78
2022-12-09T18:28:58.043Z,96243.34
2022-12-09T18:31:26.611Z,96251.41
2022-12-09T18:33:53.992Z,96252.97
2022-12-09T18:36:22.579Z,96252.69
2022-12-09T18:38:49.881Z,96247.31
2022-12-09T18:41:18.716Z,96245.63
2022-12-09T18:43:47.320Z,96231.81
2022-12-09T18:46:18.445Z,96228.63
2022-12-09T18:48:55.472Z,96128.38
2022-12-09T18:51:22.612Z,96243.22
2022-12-09T18:53:49.771Z,96241.84
2022-12-09T18:56:17.397Z,96251.47
2022-12-09T19:01:33.141Z,96255.44
2022-12-09T19:04:03.338Z,96262.63
2022-12-09T19:06:32.788Z,96263.63
2022-12-09T19:09:01.911Z,96265.13
2022-12-09T19:11:31.170Z,96270.69
2022-12-09T19:13:58.938Z,96273.38
2022-12-09T19:16:28.206Z,96265.81
2022-12-09T19:18:56.142Z,96267.22
2022-12-09T19:21:25.832Z,96265.41
2022-12-09T19:23:53.707Z,96269.22
2022-12-09T19:26:22.613Z,96271.19
2022-12-09T19:28:51.374Z,96266.81
2022-12-09T19:31:22.166Z,96280.94
2022-12-09T19:33:49.712Z,96283.69
2022-12-09T19:36:16.837Z,96274.06
2022-12-09T19:38:45.630Z,96278.41
2022-12-09T19:41:13.009Z,96288.00
2022-12-09T19:43:40.127Z,96295.34
2022-12-09T19:46:11.441Z,96298.50
2022-12-09T19:48:40.086Z,96310.72
2022-12-09T19:51:09.685Z,96310.22
2022-12-09T19:53:37.858Z,96295.69
2022-12-09T19:56:09.201Z,96279.59
2022-12-09T19:58:38.076Z,96281.81
2022-12-09T20:01:09.021Z,96287.31
2022-12-09T20:03:36.707Z,96290.41
2022-12-09T20:06:05.927Z,96295.66
2022-12-09T20:08:33.053Z,96285.13
2022-12-09T20:11:00.283Z,96289.59
2022-12-09T20:13:32.077Z,96306.09
2022-12-09T20:16:03.567Z,96311.88
2022-12-09T20:18:30.802Z,96314.16
2022-12-09T20:21:00.640Z,96313.28
2022-12-09T20:23:28.083Z,96314.16
2022-12-09T20:25:55.355Z,96310.69
2022-12-09T20:28:22.503Z,96316.63
2022-12-09T20:30:51.019Z,96316.75
2022-12-09T20:33:18.208Z,96309.97
2022-12-09T20:35:45.321Z,96312.66
2022-12-09T20:38:12.457Z,96306.50
2022-12-09T20:40:40.941Z,96312.47
2022-12-09T20:43:08.155Z,96312.47
2022-12-09T20:45:38.471Z,96317.41
2022-12-09T20:48:07.128Z,96317.03
2022-12-09T20:50:38.635Z,96315.75
2022-12-09T20:53:06.077Z,96305.91
2022-12-09T20:55:33.205Z,96311.69
2022-12-09T20:58:00.306Z,96307.38
2022-12-09T21:00:27.493Z,96317.97
2022-12-09T21:02:54.679Z,96314.44
2022-12-09T21:05:23.159Z,96297.06
2022-12-09T21:07:50.351Z,96330.06
2022-12-09T21:10:17.577Z,96330.38
2022-12-09T21:12:44.678Z,96328.44
2022-12-09T21:15:11.826Z,96327.72
2022-12-09T21:17:38.949Z,96333.66
2022-12-09T21:20:07.465Z,96335.94
2022-12-09T21:22:36.127Z,96335.56
2022-12-09T21:25:03.387Z,96333.94
2022-12-09T21:27:30.561Z,96343.44
2022-12-09T21:29:57.752Z,96336.38
2022-12-09T21:32:24.870Z,96327.28
2022-12-09T21:34:52.020Z,96347.09
2022-12-09T21:37:19.176Z,96348.97
2022-12-09T21:39:47.634Z,96333.56
2022-12-09T21:42:14.735Z,96346.00
2022-12-09T21:44:42.069Z,96347.59
2022-12-09T21:47:09.192Z,96350.59
2022-12-09T21:49:36.344Z,96346.81
2022-12-09T21:52:03.722Z,96352.91
2022-12-09T21:54:30.836Z,96346.34
2022-12-09T21:56:59.363Z,96360.16
2022-12-09T21:59:26.547Z,96364.16
2022-12-09T22:01:53.653Z,96359.97
2022-12-09T22:04:20.774Z,96369.22
2022-12-09T22:06:49.972Z,96365.19
2022-12-09T22:09:18.413Z,96364.38
2022-12-09T22:11:45.518Z,96356.41
2022-12-09T22:14:14.062Z,96353.41
2022-12-09T22:16:43.609Z,96359.25
2022-12-09T22:19:14.691Z,96358.03
2022-12-09T22:21:42.199Z,96367.84
2022-12-09T22:24:11.567Z,96372.22
2022-12-09T22:26:39.138Z,96366.63
2022-12-09T22:29:07.254Z,96372.78
2022-12-09T22:31:38.019Z,96365.41
2022-12-09T22:34:07.465Z,96373.78
2022-12-09T22:36:34.573Z,96371.81
2022-12-09T22:39:01.680Z,96346.06
2022-12-09T22:41:29.134Z,96373.44
2022-12-09T22:43:56.984Z,96374.50
2022-12-09T22:46:26.515Z,96365.63
2022-12-09T22:48:55.923Z,96373.28
2022-12-09T22:51:25.063Z,96378.47
2022-12-09T22:53:53.723Z,96377.44
2022-12-09T22:56:21.716Z,96374.25
2022-12-09T22:58:49.155Z,96370.50
2022-12-09T23:01:18.871Z,96371.00
2022-12-09T23:03:46.219Z,96361.44
2022-12-09T23:06:15.112Z,96365.41
2022-12-09T23:08:43.642Z,96362.72
2022-12-09T23:11:12.818Z,96362.78
2022-12-09T23:13:41.425Z,96361.47
2022-12-09T23:16:12.439Z,96357.44
2022-12-09T23:18:40.378Z,96354.59
2022-12-09T23:21:10.103Z,96363.38
2022-12-09T23:23:39.337Z,96356.09
2022-12-09T23:26:08.883Z,96352.59
2022-12-09T23:28:36.687Z,96354.75
2022-12-09T23:31:05.264Z,96359.16
2022-12-09T23:33:33.917Z,96351.00
2022-12-09T23:36:05.707Z,96354.97
2022-12-09T23:38:33.079Z,96354.22
2022-12-09T23:41:02.012Z,96359.81
2022-12-09T23:43:30.825Z,96364.41
2022-12-09T23:46:00.354Z,96350.47
2022-12-09T23:48:27.570Z,96359.31
2022-12-09T23:50:54.841Z,96359.06
2022-12-09T23:53:22.002Z,96351.03
2022-12-09T23:55:49.253Z,96348.94
2022-12-09T23:58:17.858Z,96355.38
